sensor_id;sensor_type;location;lat;lon;timestamp;temperature;humidity
2995;DHT22;35277;49.890;8.222;2023-02-04T00:00:30;21.60;64.80
2995;DHT22;35277;49.890;8.222;2023-02-04T00:03:02;21.60;64.80
2995;DHT22;35277;49.890;8.222;2023-02-04T00:05:30;21.60;64.80
2995;DHT22;35277;49.890;8.222;2023-02-04T00:07:58;21.60;64.80
2995;DHT22;35277;49.890;8.222;2023-02-04T00:10:26;21.60;64.80
2995;DHT22;35277;49.890;8.222;2023-02-04T00:12:55;21.60;65.60
2995;DHT22;35277;49.890;8.222;2023-02-04T00:15:23;21.60;64.80
2995;DHT22;35277;49.890;8.222;2023-02-04T00:17:51;21.60;64.80
2995;DHT22;35277;49.890;8.222;2023-02-04T00:20:19;21.60;64.70
2995;DHT22;35277;49.890;8.222;2023-02-04T00:22:47;21.60;64.70
2995;DHT22;35277;49.890;8.222;2023-02-04T00:25:14;21.60;64.70
2995;DHT22;35277;49.890;8.222;2023-02-04T00:27:42;21.60;64.80
2995;DHT22;35277;49.890;8.222;2023-02-04T00:30:13;21.60;64.70
2995;DHT22;35277;49.890;8.222;2023-02-04T00:32:40;21.60;64.70
2995;DHT22;35277;49.890;8.222;2023-02-04T00:35:08;21.60;64.70
2995;DHT22;35277;49.890;8.222;2023-02-04T00:37:36;21.60;64.70
2995;DHT22;35277;49.890;8.222;2023-02-04T00:40:04;21.60;64.70
2995;DHT22;35277;49.890;8.222;2023-02-04T00:42:32;21.50;64.60
2995;DHT22;35277;49.890;8.222;2023-02-04T00:45:00;21.60;64.80
2995;DHT22;35277;49.890;8.222;2023-02-04T00:47:29;21.60;64.70
2995;DHT22;35277;49.890;8.222;2023-02-04T00:49:57;21.60;64.70
2995;DHT22;35277;49.890;8.222;2023-02-04T00:52:25;21.60;64.80
2995;DHT22;35277;49.890;8.222;2023-02-04T00:54:52;21.60;64.70
2995;DHT22;35277;49.890;8.222;2023-02-04T00:57:21;21.60;64.70
2995;DHT22;35277;49.890;8.222;2023-02-04T00:59:48;21.60;64.70
2995;DHT22;35277;49.890;8.222;2023-02-04T01:02:16;21.60;64.70
2995;DHT22;35277;49.890;8.222;2023-02-04T01:04:45;21.60;64.70
2995;DHT22;35277;49.890;8.222;2023-02-04T01:07:16;21.60;64.70
2995;DHT22;35277;49.890;8.222;2023-02-04T01:09:44;21.60;64.70
2995;DHT22;35277;49.890;8.222;2023-02-04T01:12:12;21.60;64.70
2995;DHT22;35277;49.890;8.222;2023-02-04T01:14:40;21.60;64.70
2995;DHT22;35277;49.890;8.222;2023-02-04T01:17:08;21.60;64.70
2995;DHT22;35277;49.890;8.222;2023-02-04T01:19:36;21.60;64.70
2995;DHT22;35277;49.890;8.222;2023-02-04T01:22:05;21.60;64.70
2995;DHT22;35277;49.890;8.222;2023-02-04T01:24:33;21.60;64.70
2995;DHT22;35277;49.890;8.222;2023-02-04T01:27:19;21.60;64.70
2995;DHT22;35277;49.890;8.222;2023-02-04T01:29:47;21.60;64.70
2995;DHT22;35277;49.890;8.222;2023-02-04T01:32:16;21.60;64.70
2995;DHT22;35277;49.890;8.222;2023-02-04T01:34:43;21.60;64.80
2995;DHT22;35277;49.890;8.222;2023-02-04T01:37:12;21.60;64.70
2995;DHT22;35277;49.890;8.222;2023-02-04T01:39:40;21.60;64.70
2995;DHT22;35277;49.890;8.222;2023-02-04T01:42:08;21.60;64.70
2995;DHT22;35277;49.890;8.222;2023-02-04T01:44:36;21.60;64.70
2995;DHT22;35277;49.890;8.222;2023-02-04T01:47:05;21.60;64.70
2995;DHT22;35277;49.890;8.222;2023-02-04T01:49:33;21.60;64.70
2995;DHT22;35277;49.890;8.222;2023-02-04T01:52:01;21.60;64.70
2995;DHT22;35277;49.890;8.222;2023-02-04T01:54:30;21.60;64.70
2995;DHT22;35277;49.890;8.222;2023-02-04T01:56:58;21.60;64.70
2995;DHT22;35277;49.890;8.222;2023-02-04T01:59:26;21.60;64.70
2995;DHT22;35277;49.890;8.222;2023-02-04T02:01:54;21.60;64.70
2995;DHT22;35277;49.890;8.222;2023-02-04T02:04:30;21.60;64.70
2995;DHT22;35277;49.890;8.222;2023-02-04T02:07:04;21.60;64.70
2995;DHT22;35277;49.890;8.222;2023-02-04T02:09:34;21.60;64.70
2995;DHT22;35277;49.890;8.222;2023-02-04T02:12:05;21.60;64.70
2995;DHT22;35277;49.890;8.222;2023-02-04T02:14:32;21.60;64.70
2995;DHT22;35277;49.890;8.222;2023-02-04T02:17:00;21.60;64.70
2995;DHT22;35277;49.890;8.222;2023-02-04T02:19:33;21.60;64.70
2995;DHT22;35277;49.890;8.222;2023-02-04T02:22:05;21.60;64.70
2995;DHT22;35277;49.890;8.222;2023-02-04T02:24:36;21.60;64.70
2995;DHT22;35277;49.890;8.222;2023-02-04T02:27:06;21.60;64.70
2995;DHT22;35277;49.890;8.222;2023-02-04T02:29:34;21.60;64.70
2995;DHT22;35277;49.890;8.222;2023-02-04T02:32:03;21.60;64.70
2995;DHT22;35277;49.890;8.222;2023-02-04T02:34:32;21.60;64.70
2995;DHT22;35277;49.890;8.222;2023-02-04T02:37:02;21.60;64.70
2995;DHT22;35277;49.890;8.222;2023-02-04T02:39:30;21.60;64.70
2995;DHT22;35277;49.890;8.222;2023-02-04T02:42:00;21.60;64.70
2995;DHT22;35277;49.890;8.222;2023-02-04T02:44:28;21.60;64.70
2995;DHT22;35277;49.890;8.222;2023-02-04T02:46:57;21.60;64.70
2995;DHT22;35277;49.890;8.222;2023-02-04T02:49:28;21.60;64.70
2995;DHT22;35277;49.890;8.222;2023-02-04T02:51:57;21.60;65.50
2995;DHT22;35277;49.890;8.222;2023-02-04T02:54:28;21.60;64.70
2995;DHT22;35277;49.890;8.222;2023-02-04T02:57:01;21.60;64.70
2995;DHT22;35277;49.890;8.222;2023-02-04T02:59:28;21.60;64.80
2995;DHT22;35277;49.890;8.222;2023-02-04T03:01:59;21.60;64.70
2995;DHT22;35277;49.890;8.222;2023-02-04T03:04:34;21.60;64.70
2995;DHT22;35277;49.890;8.222;2023-02-04T03:07:05;21.60;64.70
2995;DHT22;35277;49.890;8.222;2023-02-04T03:09:33;21.60;64.70
2995;DHT22;35277;49.890;8.222;2023-02-04T03:12:04;21.60;64.80
2995;DHT22;35277;49.890;8.222;2023-02-04T03:14:34;21.60;64.80
2995;DHT22;35277;49.890;8.222;2023-02-04T03:17:05;21.60;64.80
2995;DHT22;35277;49.890;8.222;2023-02-04T03:19:33;21.60;64.80
2995;DHT22;35277;49.890;8.222;2023-02-04T03:22:03;21.60;64.80
2995;DHT22;35277;49.890;8.222;2023-02-04T03:24:31;21.60;64.80
2995;DHT22;35277;49.890;8.222;2023-02-04T03:26:59;21.60;64.80
2995;DHT22;35277;49.890;8.222;2023-02-04T03:29:29;21.60;64.80
2995;DHT22;35277;49.890;8.222;2023-02-04T03:31:57;21.60;64.80
2995;DHT22;35277;49.890;8.222;2023-02-04T03:34:25;21.60;64.80
2995;DHT22;35277;49.890;8.222;2023-02-04T03:36:53;21.60;64.80
2995;DHT22;35277;49.890;8.222;2023-02-04T03:39:21;21.60;64.80
2995;DHT22;35277;49.890;8.222;2023-02-04T03:41:48;21.60;64.80
2995;DHT22;35277;49.890;8.222;2023-02-04T03:44:16;21.60;64.80
2995;DHT22;35277;49.890;8.222;2023-02-04T03:46:46;21.60;64.80
2995;DHT22;35277;49.890;8.222;2023-02-04T03:49:14;21.60;64.80
2995;DHT22;35277;49.890;8.222;2023-02-04T03:51:41;21.60;64.80
2995;DHT22;35277;49.890;8.222;2023-02-04T03:54:09;21.60;64.80
2995;DHT22;35277;49.890;8.222;2023-02-04T03:56:37;21.60;64.80
2995;DHT22;35277;49.890;8.222;2023-02-04T03:59:05;21.60;64.80
2995;DHT22;35277;49.890;8.222;2023-02-04T04:01:33;21.60;64.80
2995;DHT22;35277;49.890;8.222;2023-02-04T04:04:02;21.60;64.80
2995;DHT22;35277;49.890;8.222;2023-02-04T04:06:29;21.60;64.80
2995;DHT22;35277;49.890;8.222;2023-02-04T04:08:57;21.60;64.80
2995;DHT22;35277;49.890;8.222;2023-02-04T04:11:25;21.60;64.80
2995;DHT22;35277;49.890;8.222;2023-02-04T04:13:53;21.60;64.80
2995;DHT22;35277;49.890;8.222;2023-02-04T04:16:21;21.60;64.80
2995;DHT22;35277;49.890;8.222;2023-02-04T04:18:49;21.60;64.80
2995;DHT22;35277;49.890;8.222;2023-02-04T04:21:18;21.60;64.80
2995;DHT22;35277;49.890;8.222;2023-02-04T04:23:46;21.60;64.80
2995;DHT22;35277;49.890;8.222;2023-02-04T04:26:14;21.50;64.70
2995;DHT22;35277;49.890;8.222;2023-02-04T04:28:42;21.60;64.80
2995;DHT22;35277;49.890;8.222;2023-02-04T04:31:10;21.60;64.80
2995;DHT22;35277;49.890;8.222;2023-02-04T04:33:38;21.60;64.80
2995;DHT22;35277;49.890;8.222;2023-02-04T04:36:07;21.60;64.80
2995;DHT22;35277;49.890;8.222;2023-02-04T04:38:36;21.60;64.80
2995;DHT22;35277;49.890;8.222;2023-02-04T04:41:04;21.60;64.80
2995;DHT22;35277;49.890;8.222;2023-02-04T04:43:31;21.60;64.80
2995;DHT22;35277;49.890;8.222;2023-02-04T04:45:59;21.60;64.80
2995;DHT22;35277;49.890;8.222;2023-02-04T04:48:27;21.60;64.80
2995;DHT22;35277;49.890;8.222;2023-02-04T04:50:54;21.60;64.80
2995;DHT22;35277;49.890;8.222;2023-02-04T04:53:23;21.60;64.80
2995;DHT22;35277;49.890;8.222;2023-02-04T04:55:52;21.60;64.80
2995;DHT22;35277;49.890;8.222;2023-02-04T04:58:20;21.60;64.80
2995;DHT22;35277;49.890;8.222;2023-02-04T05:00:48;21.60;64.80
2995;DHT22;35277;49.890;8.222;2023-02-04T05:03:16;21.60;64.90
2995;DHT22;35277;49.890;8.222;2023-02-04T05:05:43;21.60;65.00
2995;DHT22;35277;49.890;8.222;2023-02-04T05:08:11;21.60;65.00
2995;DHT22;35277;49.890;8.222;2023-02-04T05:10:42;21.60;65.10
2995;DHT22;35277;49.890;8.222;2023-02-04T05:13:11;21.60;65.10
2995;DHT22;35277;49.890;8.222;2023-02-04T05:15:39;21.60;65.10
2995;DHT22;35277;49.890;8.222;2023-02-04T05:18:07;21.60;65.10
2995;DHT22;35277;49.890;8.222;2023-02-04T05:20:35;21.60;65.10
2995;DHT22;35277;49.890;8.222;2023-02-04T05:23:03;21.60;65.10
2995;DHT22;35277;49.890;8.222;2023-02-04T05:25:31;21.60;65.10
2995;DHT22;35277;49.890;8.222;2023-02-04T05:27:59;21.60;65.00
2995;DHT22;35277;49.890;8.222;2023-02-04T05:30:29;21.60;65.00
2995;DHT22;35277;49.890;8.222;2023-02-04T05:32:57;21.60;65.00
2995;DHT22;35277;49.890;8.222;2023-02-04T05:35:24;21.60;64.90
2995;DHT22;35277;49.890;8.222;2023-02-04T05:37:52;21.60;64.90
2995;DHT22;35277;49.890;8.222;2023-02-04T05:40:20;21.50;64.80
2995;DHT22;35277;49.890;8.222;2023-02-04T05:42:48;21.50;64.80
2995;DHT22;35277;49.890;8.222;2023-02-04T05:45:16;21.50;64.80
2995;DHT22;35277;49.890;8.222;2023-02-04T05:47:46;21.50;65.50
2995;DHT22;35277;49.890;8.222;2023-02-04T05:50:14;21.50;64.70
2995;DHT22;35277;49.890;8.222;2023-02-04T05:52:42;21.50;64.60
2995;DHT22;35277;49.890;8.222;2023-02-04T05:55:11;21.50;64.60
2995;DHT22;35277;49.890;8.222;2023-02-04T05:57:39;21.60;64.70
2995;DHT22;35277;49.890;8.222;2023-02-04T06:00:08;21.50;64.60
2995;DHT22;35277;49.890;8.222;2023-02-04T06:02:38;21.50;64.50
2995;DHT22;35277;49.890;8.222;2023-02-04T06:05:08;21.50;64.50
2995;DHT22;35277;49.890;8.222;2023-02-04T06:07:35;21.50;64.40
2995;DHT22;35277;49.890;8.222;2023-02-04T06:10:04;21.60;64.50
2995;DHT22;35277;49.890;8.222;2023-02-04T06:12:31;21.50;64.40
2995;DHT22;35277;49.890;8.222;2023-02-04T06:14:59;21.50;64.30
2995;DHT22;35277;49.890;8.222;2023-02-04T06:17:27;21.60;64.40
2995;DHT22;35277;49.890;8.222;2023-02-04T06:19:55;21.60;64.30
2995;DHT22;35277;49.890;8.222;2023-02-04T06:22:24;21.50;64.30
2995;DHT22;35277;49.890;8.222;2023-02-04T06:24:52;21.60;64.30
2995;DHT22;35277;49.890;8.222;2023-02-04T06:27:20;21.50;64.20
2995;DHT22;35277;49.890;8.222;2023-02-04T06:29:49;21.50;64.20
2995;DHT22;35277;49.890;8.222;2023-02-04T06:32:18;21.50;64.20
2995;DHT22;35277;49.890;8.222;2023-02-04T06:34:46;21.50;64.10
2995;DHT22;35277;49.890;8.222;2023-02-04T06:37:13;21.60;64.20
2995;DHT22;35277;49.890;8.222;2023-02-04T06:39:43;21.50;64.10
2995;DHT22;35277;49.890;8.222;2023-02-04T06:42:11;21.50;64.00
2995;DHT22;35277;49.890;8.222;2023-02-04T06:44:39;21.50;64.00
2995;DHT22;35277;49.890;8.222;2023-02-04T06:47:07;21.50;64.00
2995;DHT22;35277;49.890;8.222;2023-02-04T06:49:35;21.50;64.00
2995;DHT22;35277;49.890;8.222;2023-02-04T06:52:03;21.50;63.90
2995;DHT22;35277;49.890;8.222;2023-02-04T06:54:31;21.50;63.90
2995;DHT22;35277;49.890;8.222;2023-02-04T06:57:00;21.50;63.80
2995;DHT22;35277;49.890;8.222;2023-02-04T06:59:32;21.50;63.80
2995;DHT22;35277;49.890;8.222;2023-02-04T07:02:00;21.50;63.80
2995;DHT22;35277;49.890;8.222;2023-02-04T07:04:28;21.60;63.90
2995;DHT22;35277;49.890;8.222;2023-02-04T07:06:56;21.50;63.70
2995;DHT22;35277;49.890;8.222;2023-02-04T07:09:24;21.50;63.80
2995;DHT22;35277;49.890;8.222;2023-02-04T07:11:51;21.60;63.80
2995;DHT22;35277;49.890;8.222;2023-02-04T07:14:20;21.50;63.70
2995;DHT22;35277;49.890;8.222;2023-02-04T07:16:48;21.50;63.70
2995;DHT22;35277;49.890;8.222;2023-02-04T07:19:16;21.50;63.70
2995;DHT22;35277;49.890;8.222;2023-02-04T07:21:46;21.50;63.70
2995;DHT22;35277;49.890;8.222;2023-02-04T07:24:14;21.60;63.70
2995;DHT22;35277;49.890;8.222;2023-02-04T07:26:42;21.60;63.70
2995;DHT22;35277;49.890;8.222;2023-02-04T07:29:10;21.50;63.60
2995;DHT22;35277;49.890;8.222;2023-02-04T07:31:51;21.50;63.60
2995;DHT22;35277;49.890;8.222;2023-02-04T07:34:19;21.60;63.60
2995;DHT22;35277;49.890;8.222;2023-02-04T07:36:47;21.50;63.60
2995;DHT22;35277;49.890;8.222;2023-02-04T07:39:14;21.60;63.60
2995;DHT22;35277;49.890;8.222;2023-02-04T07:41:43;21.50;63.50
2995;DHT22;35277;49.890;8.222;2023-02-04T07:44:13;21.50;63.40
2995;DHT22;35277;49.890;8.222;2023-02-04T07:46:40;21.50;63.40
2995;DHT22;35277;49.890;8.222;2023-02-04T07:49:10;21.60;63.60
2995;DHT22;35277;49.890;8.222;2023-02-04T07:51:37;21.50;63.40
2995;DHT22;35277;49.890;8.222;2023-02-04T07:54:05;21.60;63.80
2995;DHT22;35277;49.890;8.222;2023-02-04T07:56:33;21.60;64.40
2995;DHT22;35277;49.890;8.222;2023-02-04T07:59:00;21.60;64.80
2995;DHT22;35277;49.890;8.222;2023-02-04T08:01:28;21.60;64.80
2995;DHT22;35277;49.890;8.222;2023-02-04T08:03:56;21.60;64.80
2995;DHT22;35277;49.890;8.222;2023-02-04T08:06:25;21.60;64.80
2995;DHT22;35277;49.890;8.222;2023-02-04T08:08:53;21.60;64.80
2995;DHT22;35277;49.890;8.222;2023-02-04T08:11:21;21.60;64.70
2995;DHT22;35277;49.890;8.222;2023-02-04T08:13:48;21.60;64.80
2995;DHT22;35277;49.890;8.222;2023-02-04T08:16:16;21.60;64.70
2995;DHT22;35277;49.890;8.222;2023-02-04T08:18:44;21.60;64.80
2995;DHT22;35277;49.890;8.222;2023-02-04T08:21:12;21.60;64.80
2995;DHT22;35277;49.890;8.222;2023-02-04T08:23:41;21.70;64.90
2995;DHT22;35277;49.890;8.222;2023-02-04T08:26:10;21.70;64.90
2995;DHT22;35277;49.890;8.222;2023-02-04T08:28:38;21.70;64.90
2995;DHT22;35277;49.890;8.222;2023-02-04T08:31:06;21.70;64.90
2995;DHT22;35277;49.890;8.222;2023-02-04T08:33:37;21.70;64.80
2995;DHT22;35277;49.890;8.222;2023-02-04T08:36:06;21.70;64.80
2995;DHT22;35277;49.890;8.222;2023-02-04T08:38:34;21.70;64.70
2995;DHT22;35277;49.890;8.222;2023-02-04T08:41:03;21.70;64.60
2995;DHT22;35277;49.890;8.222;2023-02-04T08:43:31;21.70;64.60
2995;DHT22;35277;49.890;8.222;2023-02-04T08:45:59;21.70;64.50
2995;DHT22;35277;49.890;8.222;2023-02-04T08:48:26;21.70;64.50
2995;DHT22;35277;49.890;8.222;2023-02-04T08:50:54;21.70;64.50
2995;DHT22;35277;49.890;8.222;2023-02-04T08:53:22;21.70;64.50
2995;DHT22;35277;49.890;8.222;2023-02-04T08:55:50;21.70;64.40
2995;DHT22;35277;49.890;8.222;2023-02-04T08:58:19;21.70;64.40
2995;DHT22;35277;49.890;8.222;2023-02-04T09:00:46;21.70;64.40
2995;DHT22;35277;49.890;8.222;2023-02-04T09:03:14;21.70;64.30
2995;DHT22;35277;49.890;8.222;2023-02-04T09:05:42;21.70;64.30
2995;DHT22;35277;49.890;8.222;2023-02-04T09:08:09;21.70;64.20
2995;DHT22;35277;49.890;8.222;2023-02-04T09:10:37;21.70;64.20
2995;DHT22;35277;49.890;8.222;2023-02-04T09:13:05;21.70;64.20
2995;DHT22;35277;49.890;8.222;2023-02-04T09:15:36;21.70;64.20
2995;DHT22;35277;49.890;8.222;2023-02-04T09:18:03;21.70;64.20
2995;DHT22;35277;49.890;8.222;2023-02-04T09:20:40;21.70;64.10
2995;DHT22;35277;49.890;8.222;2023-02-04T09:23:08;21.70;64.10
2995;DHT22;35277;49.890;8.222;2023-02-04T09:25:37;21.70;64.10
2995;DHT22;35277;49.890;8.222;2023-02-04T09:28:05;21.70;64.10
2995;DHT22;35277;49.890;8.222;2023-02-04T09:30:37;21.70;64.10
2995;DHT22;35277;49.890;8.222;2023-02-04T09:33:05;21.70;64.00
2995;DHT22;35277;49.890;8.222;2023-02-04T09:35:33;21.70;64.10
2995;DHT22;35277;49.890;8.222;2023-02-04T09:38:01;21.80;64.20
2995;DHT22;35277;49.890;8.222;2023-02-04T09:40:30;21.80;64.20
2995;DHT22;35277;49.890;8.222;2023-02-04T09:43:01;21.80;64.20
2995;DHT22;35277;49.890;8.222;2023-02-04T09:45:32;21.80;64.20
2995;DHT22;35277;49.890;8.222;2023-02-04T09:48:03;21.80;64.20
2995;DHT22;35277;49.890;8.222;2023-02-04T09:50:32;21.80;64.20
2995;DHT22;35277;49.890;8.222;2023-02-04T09:53:03;21.80;64.30
2995;DHT22;35277;49.890;8.222;2023-02-04T09:55:33;21.80;64.30
2995;DHT22;35277;49.890;8.222;2023-02-04T09:58:01;21.80;64.40
2995;DHT22;35277;49.890;8.222;2023-02-04T10:00:30;21.90;64.40
2995;DHT22;35277;49.890;8.222;2023-02-04T10:02:59;21.90;64.40
2995;DHT22;35277;49.890;8.222;2023-02-04T10:05:32;21.90;64.50
2995;DHT22;35277;49.890;8.222;2023-02-04T10:08:03;21.90;64.40
2995;DHT22;35277;49.890;8.222;2023-02-04T10:10:32;21.90;64.80
2995;DHT22;35277;49.890;8.222;2023-02-04T10:13:01;22.00;65.40
2995;DHT22;35277;49.890;8.222;2023-02-04T10:15:29;22.00;65.80
2995;DHT22;35277;49.890;8.222;2023-02-04T10:18:01;22.00;66.10
2995;DHT22;35277;49.890;8.222;2023-02-04T10:20:32;22.00;66.40
2995;DHT22;35277;49.890;8.222;2023-02-04T10:23:00;22.00;66.60
2995;DHT22;35277;49.890;8.222;2023-02-04T10:25:28;22.00;66.70
2995;DHT22;35277;49.890;8.222;2023-02-04T10:27:57;22.00;66.80
2995;DHT22;35277;49.890;8.222;2023-02-04T10:30:27;22.00;66.80
2995;DHT22;35277;49.890;8.222;2023-02-04T10:32:55;22.10;67.00
2995;DHT22;35277;49.890;8.222;2023-02-04T10:35:23;22.10;67.00
2995;DHT22;35277;49.890;8.222;2023-02-04T10:38:04;22.10;67.10
2995;DHT22;35277;49.890;8.222;2023-02-04T10:40:34;22.10;67.20
2995;DHT22;35277;49.890;8.222;2023-02-04T10:43:07;22.10;67.30
2995;DHT22;35277;49.890;8.222;2023-02-04T10:45:37;22.10;67.20
2995;DHT22;35277;49.890;8.222;2023-02-04T10:48:05;22.10;67.30
2995;DHT22;35277;49.890;8.222;2023-02-04T10:50:33;22.10;67.40
2995;DHT22;35277;49.890;8.222;2023-02-04T10:53:02;22.10;67.50
2995;DHT22;35277;49.890;8.222;2023-02-04T10:55:48;22.10;67.50
2995;DHT22;35277;49.890;8.222;2023-02-04T10:58:19;22.10;68.40
2995;DHT22;35277;49.890;8.222;2023-02-04T11:00:50;22.10;67.70
2995;DHT22;35277;49.890;8.222;2023-02-04T11:03:21;22.10;67.60
2995;DHT22;35277;49.890;8.222;2023-02-04T11:05:50;22.00;67.50
2995;DHT22;35277;49.890;8.222;2023-02-04T11:08:22;22.00;67.40
2995;DHT22;35277;49.890;8.222;2023-02-04T11:10:54;22.00;67.40
2995;DHT22;35277;49.890;8.222;2023-02-04T11:13:24;22.00;67.40
2995;DHT22;35277;49.890;8.222;2023-02-04T11:16:22;22.00;67.40
2995;DHT22;35277;49.890;8.222;2023-02-04T11:18:53;22.00;67.40
2995;DHT22;35277;49.890;8.222;2023-02-04T11:21:24;22.00;67.50
2995;DHT22;35277;49.890;8.222;2023-02-04T11:24:23;22.00;67.70
2995;DHT22;35277;49.890;8.222;2023-02-04T11:26:51;22.00;67.70
2995;DHT22;35277;49.890;8.222;2023-02-04T11:29:28;22.00;67.50
2995;DHT22;35277;49.890;8.222;2023-02-04T11:32:02;22.00;67.40
2995;DHT22;35277;49.890;8.222;2023-02-04T11:37:28;22.00;67.20
2995;DHT22;35277;49.890;8.222;2023-02-04T11:40:24;22.00;67.00
2995;DHT22;35277;49.890;8.222;2023-02-04T11:42:57;22.00;66.90
2995;DHT22;35277;49.890;8.222;2023-02-04T11:45:28;22.00;66.80
2995;DHT22;35277;49.890;8.222;2023-02-04T11:47:58;22.00;66.70
2995;DHT22;35277;49.890;8.222;2023-02-04T11:50:29;22.00;66.60
2995;DHT22;35277;49.890;8.222;2023-02-04T11:52:58;22.00;66.60
2995;DHT22;35277;49.890;8.222;2023-02-04T11:55:30;22.00;66.50
2995;DHT22;35277;49.890;8.222;2023-02-04T11:57:58;22.00;66.40
2995;DHT22;35277;49.890;8.222;2023-02-04T12:00:29;22.00;66.40
2995;DHT22;35277;49.890;8.222;2023-02-04T12:02:59;22.10;66.40
2995;DHT22;35277;49.890;8.222;2023-02-04T12:05:39;22.10;66.40
2995;DHT22;35277;49.890;8.222;2023-02-04T12:08:12;22.10;66.40
2995;DHT22;35277;49.890;8.222;2023-02-04T12:10:48;22.10;66.40
2995;DHT22;35277;49.890;8.222;2023-02-04T12:13:23;22.20;66.40
2995;DHT22;35277;49.890;8.222;2023-02-04T12:15:57;22.20;66.60
2995;DHT22;35277;49.890;8.222;2023-02-04T12:18:25;22.30;67.00
2995;DHT22;35277;49.890;8.222;2023-02-04T12:20:54;22.30;67.30
2995;DHT22;35277;49.890;8.222;2023-02-04T12:23:22;22.30;67.40
2995;DHT22;35277;49.890;8.222;2023-02-04T12:25:52;22.30;67.30
2995;DHT22;35277;49.890;8.222;2023-02-04T12:28:20;22.40;67.30
2995;DHT22;35277;49.890;8.222;2023-02-04T12:30:48;22.40;67.20
2995;DHT22;35277;49.890;8.222;2023-02-04T12:33:16;22.40;67.00
2995;DHT22;35277;49.890;8.222;2023-02-04T12:35:43;22.40;66.90
2995;DHT22;35277;49.890;8.222;2023-02-04T12:38:11;22.40;66.80
2995;DHT22;35277;49.890;8.222;2023-02-04T12:40:39;22.40;66.70
2995;DHT22;35277;49.890;8.222;2023-02-04T12:43:08;22.50;66.70
2995;DHT22;35277;49.890;8.222;2023-02-04T12:45:36;22.50;66.60
2995;DHT22;35277;49.890;8.222;2023-02-04T12:48:05;22.50;66.40
2995;DHT22;35277;49.890;8.222;2023-02-04T12:50:33;22.50;66.40
2995;DHT22;35277;49.890;8.222;2023-02-04T12:53:01;22.50;66.20
2995;DHT22;35277;49.890;8.222;2023-02-04T12:55:29;22.50;66.10
2995;DHT22;35277;49.890;8.222;2023-02-04T12:57:58;22.50;65.90
2995;DHT22;35277;49.890;8.222;2023-02-04T13:00:27;22.50;65.80
2995;DHT22;35277;49.890;8.222;2023-02-04T13:02:54;22.50;65.60
2995;DHT22;35277;49.890;8.222;2023-02-04T13:05:24;22.50;65.40
2995;DHT22;35277;49.890;8.222;2023-02-04T13:07:52;22.50;65.10
2995;DHT22;35277;49.890;8.222;2023-02-04T13:10:20;22.50;64.80
2995;DHT22;35277;49.890;8.222;2023-02-04T13:12:49;22.50;64.60
2995;DHT22;35277;49.890;8.222;2023-02-04T13:15:17;22.50;64.50
2995;DHT22;35277;49.890;8.222;2023-02-04T13:17:46;22.40;64.20
2995;DHT22;35277;49.890;8.222;2023-02-04T13:20:14;22.40;64.00
2995;DHT22;35277;49.890;8.222;2023-02-04T13:22:42;22.40;63.90
2995;DHT22;35277;49.890;8.222;2023-02-04T13:25:10;22.40;63.90
2995;DHT22;35277;49.890;8.222;2023-02-04T13:27:38;22.40;64.00
2995;DHT22;35277;49.890;8.222;2023-02-04T13:30:09;22.40;64.00
2995;DHT22;35277;49.890;8.222;2023-02-04T13:32:37;22.30;63.90
2995;DHT22;35277;49.890;8.222;2023-02-04T13:35:07;22.30;64.00
2995;DHT22;35277;49.890;8.222;2023-02-04T13:37:35;22.30;64.00
2995;DHT22;35277;49.890;8.222;2023-02-04T13:40:04;22.30;64.00
2995;DHT22;35277;49.890;8.222;2023-02-04T13:42:33;22.30;64.50
2995;DHT22;35277;49.890;8.222;2023-02-04T13:45:01;22.30;64.00
2995;DHT22;35277;49.890;8.222;2023-02-04T13:47:28;22.30;64.10
2995;DHT22;35277;49.890;8.222;2023-02-04T13:49:56;22.30;64.10
2995;DHT22;35277;49.890;8.222;2023-02-04T13:52:25;22.30;64.10
2995;DHT22;35277;49.890;8.222;2023-02-04T13:54:53;22.20;64.10
2995;DHT22;35277;49.890;8.222;2023-02-04T13:57:22;22.20;64.10
2995;DHT22;35277;49.890;8.222;2023-02-04T13:59:49;22.20;64.10
2995;DHT22;35277;49.890;8.222;2023-02-04T14:02:17;22.20;64.20
2995;DHT22;35277;49.890;8.222;2023-02-04T14:04:46;22.20;64.20
2995;DHT22;35277;49.890;8.222;2023-02-04T14:07:14;22.20;64.30
2995;DHT22;35277;49.890;8.222;2023-02-04T14:09:43;22.20;64.30
2995;DHT22;35277;49.890;8.222;2023-02-04T14:12:13;22.20;64.30
2995;DHT22;35277;49.890;8.222;2023-02-04T14:14:41;22.10;64.20
2995;DHT22;35277;49.890;8.222;2023-02-04T14:17:09;22.10;64.20
2995;DHT22;35277;49.890;8.222;2023-02-04T14:19:36;22.10;64.30
2995;DHT22;35277;49.890;8.222;2023-02-04T14:22:04;22.10;64.30
2995;DHT22;35277;49.890;8.222;2023-02-04T14:24:33;22.10;64.30
2995;DHT22;35277;49.890;8.222;2023-02-04T14:27:02;22.10;64.30
2995;DHT22;35277;49.890;8.222;2023-02-04T14:29:32;22.10;64.20
2995;DHT22;35277;49.890;8.222;2023-02-04T14:32:00;22.20;64.30
2995;DHT22;35277;49.890;8.222;2023-02-04T14:34:28;22.20;64.30
2995;DHT22;35277;49.890;8.222;2023-02-04T14:36:56;22.20;64.30
2995;DHT22;35277;49.890;8.222;2023-02-04T14:39:24;22.20;64.30
2995;DHT22;35277;49.890;8.222;2023-02-04T14:41:52;22.20;64.30
2995;DHT22;35277;49.890;8.222;2023-02-04T14:44:21;22.10;64.20
2995;DHT22;35277;49.890;8.222;2023-02-04T14:46:48;22.10;64.30
2995;DHT22;35277;49.890;8.222;2023-02-04T14:49:16;22.20;64.50
2995;DHT22;35277;49.890;8.222;2023-02-04T14:51:44;22.20;64.50
2995;DHT22;35277;49.890;8.222;2023-02-04T14:54:12;22.20;64.40
2995;DHT22;35277;49.890;8.222;2023-02-04T14:56:40;22.20;64.10
2995;DHT22;35277;49.890;8.222;2023-02-04T14:59:10;22.10;63.80
2995;DHT22;35277;49.890;8.222;2023-02-04T15:01:39;22.10;63.70
2995;DHT22;35277;49.890;8.222;2023-02-04T15:04:07;22.10;63.70
2995;DHT22;35277;49.890;8.222;2023-02-04T15:06:37;22.10;63.70
2995;DHT22;35277;49.890;8.222;2023-02-04T15:09:05;22.10;63.70
2995;DHT22;35277;49.890;8.222;2023-02-04T15:11:33;22.10;63.70
2995;DHT22;35277;49.890;8.222;2023-02-04T15:14:01;22.10;63.70
2995;DHT22;35277;49.890;8.222;2023-02-04T15:16:29;22.10;63.70
2995;DHT22;35277;49.890;8.222;2023-02-04T15:18:58;22.00;63.60
2995;DHT22;35277;49.890;8.222;2023-02-04T15:21:25;22.00;63.70
2995;DHT22;35277;49.890;8.222;2023-02-04T15:23:53;22.00;63.70
2995;DHT22;35277;49.890;8.222;2023-02-04T15:26:21;22.00;63.70
2995;DHT22;35277;49.890;8.222;2023-02-04T15:28:50;22.00;63.70
2995;DHT22;35277;49.890;8.222;2023-02-04T15:31:18;22.00;63.70
2995;DHT22;35277;49.890;8.222;2023-02-04T15:33:46;22.00;63.70
2995;DHT22;35277;49.890;8.222;2023-02-04T15:36:15;22.00;63.80
2995;DHT22;35277;49.890;8.222;2023-02-04T15:38:43;22.00;63.90
2995;DHT22;35277;49.890;8.222;2023-02-04T15:41:11;22.00;64.10
2995;DHT22;35277;49.890;8.222;2023-02-04T15:43:38;22.00;64.20
2995;DHT22;35277;49.890;8.222;2023-02-04T15:46:06;22.00;64.30
2995;DHT22;35277;49.890;8.222;2023-02-04T15:48:34;22.00;64.50
2995;DHT22;35277;49.890;8.222;2023-02-04T15:51:02;22.00;64.50
2995;DHT22;35277;49.890;8.222;2023-02-04T15:53:31;22.00;64.60
2995;DHT22;35277;49.890;8.222;2023-02-04T15:56:00;22.00;64.60
2995;DHT22;35277;49.890;8.222;2023-02-04T15:58:28;22.00;64.70